createdAt,value
2019-04-10T00:00:52.990Z,26.80
2019-04-10T00:03:56.849Z,28.97
2019-04-10T00:07:09.475Z,24.43
2019-04-10T00:10:05.773Z,21.93
2019-04-10T00:13:10.063Z,24.73
2019-04-10T00:16:13.951Z,20.93
2019-04-10T00:19:18.272Z,23.20
2019-04-10T00:22:22.461Z,20.93
2019-04-10T00:25:26.586Z,23.00
2019-04-10T00:28:30.115Z,19.73
2019-04-10T00:31:34.038Z,21.67
2019-04-10T00:34:37.908Z,19.27
2019-04-10T00:37:42.865Z,20.73
2019-04-10T00:40:47.798Z,19.03
2019-04-10T00:43:51.804Z,17.07
2019-04-10T00:46:55.650Z,19.30
2019-04-10T00:49:59.824Z,16.30
2019-04-10T00:53:03.411Z,15.83
2019-04-10T00:56:08.408Z,16.23
2019-04-10T00:59:12.370Z,18.33
2019-04-10T01:02:16.548Z,18.20
2019-04-10T01:05:20.297Z,15.03
2019-04-10T01:08:24.505Z,15.87
2019-04-10T01:11:28.469Z,15.53
2019-04-10T01:14:32.069Z,15.93
2019-04-10T01:17:35.656Z,13.13
2019-04-10T01:20:39.799Z,14.47
2019-04-10T01:23:43.388Z,13.40
2019-04-10T01:26:47.573Z,14.20
2019-04-10T01:29:51.568Z,14.87
2019-04-10T01:32:56.419Z,12.90
2019-04-10T01:36:00.097Z,14.07
2019-04-10T01:39:04.133Z,14.57
2019-04-10T01:42:08.226Z,12.07
2019-04-10T01:45:12.048Z,11.90
2019-04-10T01:48:15.896Z,13.17
2019-04-10T01:51:19.562Z,11.37
2019-04-10T01:54:23.146Z,11.63
2019-04-10T01:57:26.733Z,11.53
2019-04-10T02:00:31.890Z,9.83
2019-04-10T02:03:36.262Z,11.67
2019-04-10T02:06:41.249Z,12.13
2019-04-10T02:09:45.873Z,10.80
2019-04-10T02:12:50.682Z,11.17
2019-04-10T02:15:54.518Z,10.60
2019-04-10T02:18:58.412Z,9.87
2019-04-10T02:22:02.459Z,12.30
2019-04-10T02:25:07.322Z,9.77
2019-04-10T02:28:11.092Z,10.80
2019-04-10T02:31:15.088Z,8.73
2019-04-10T02:34:19.440Z,9.43
2019-04-10T02:37:25.053Z,11.03
2019-04-10T02:40:30.873Z,10.00
2019-04-10T02:43:36.004Z,9.83
2019-04-10T02:46:41.229Z,9.77
2019-04-10T02:49:47.105Z,8.50
2019-04-10T02:52:51.104Z,12.87
2019-04-10T02:55:55.801Z,10.57
2019-04-10T02:59:00.212Z,9.47
2019-04-10T03:02:04.444Z,9.60
2019-04-10T03:05:09.376Z,9.37
2019-04-10T03:08:15.463Z,10.63
2019-04-10T03:11:20.030Z,7.37
2019-04-10T03:14:24.448Z,7.60
2019-04-10T03:17:28.209Z,7.93
2019-04-10T03:20:32.195Z,9.43
2019-04-10T03:23:36.116Z,7.50
2019-04-10T03:26:39.692Z,7.87
2019-04-10T03:29:44.884Z,6.30
2019-04-10T03:33:06.099Z,6.70
2019-04-10T03:36:09.442Z,7.33
2019-04-10T03:39:13.447Z,7.33
2019-04-10T03:42:17.023Z,7.10
2019-04-10T03:45:20.892Z,7.10
2019-04-10T03:48:25.203Z,7.10
2019-04-10T03:51:28.771Z,7.57
2019-04-10T03:54:33.021Z,7.73
2019-04-10T03:57:38.548Z,5.70
2019-04-10T04:00:42.776Z,6.53
2019-04-10T04:03:46.907Z,6.20
2019-04-10T04:06:50.421Z,6.23
2019-04-10T04:09:54.288Z,5.37
2019-04-10T04:12:57.852Z,9.20
2019-04-10T04:16:02.265Z,14.17
2019-04-10T04:19:05.998Z,29.00
2019-04-10T04:22:09.547Z,26.00
2019-04-10T04:25:13.572Z,28.73
2019-04-10T04:28:17.549Z,46.97
2019-04-10T04:31:21.138Z,46.37
2019-04-10T04:34:25.014Z,30.87
2019-04-10T04:37:28.671Z,26.07
2019-04-10T04:40:33.475Z,19.30
2019-04-10T04:43:37.737Z,14.40
2019-04-10T04:46:41.320Z,12.33
2019-04-10T04:49:46.673Z,12.33
2019-04-10T04:52:50.317Z,13.50
2019-04-10T04:55:53.897Z,11.27
2019-04-10T04:58:57.793Z,9.70
2019-04-10T05:02:01.419Z,6.53
2019-04-10T05:05:06.633Z,9.13
2019-04-10T05:08:10.266Z,26.90
2019-04-10T05:11:13.978Z,33.33
2019-04-10T05:14:17.776Z,29.97
2019-04-10T05:17:22.190Z,28.87
2019-04-10T05:20:38.759Z,30.00
2019-04-10T05:23:31.563Z,31.33
2019-04-10T05:26:36.268Z,26.67
2019-04-10T05:29:40.868Z,29.07
2019-04-10T05:32:44.605Z,24.80
2019-04-10T05:35:48.827Z,26.90
2019-04-10T05:38:52.862Z,28.80
2019-04-10T05:41:56.859Z,22.17
2019-04-10T05:45:00.793Z,24.70
2019-04-10T05:48:04.374Z,19.87
2019-04-10T05:51:09.072Z,23.83
2019-04-10T05:54:13.439Z,22.20
2019-04-10T05:57:18.008Z,22.47
2019-04-10T06:00:23.012Z,20.67
2019-04-10T06:03:28.139Z,17.20
2019-04-10T06:06:32.633Z,16.20
2019-04-10T06:09:36.597Z,22.07
2019-04-10T06:12:40.420Z,16.50
2019-04-10T06:15:45.362Z,15.70
2019-04-10T06:18:49.347Z,16.10
2019-04-10T06:21:52.987Z,13.83
2019-04-10T06:24:56.886Z,19.80
2019-04-10T06:28:01.127Z,19.53
2019-04-10T06:31:04.827Z,13.87
2019-04-10T06:34:08.979Z,15.57
2019-04-10T06:37:13.566Z,13.23
2019-04-10T06:40:21.086Z,14.50
2019-04-10T06:43:23.722Z,17.50
2019-04-10T06:46:28.418Z,13.57
2019-04-10T06:49:33.150Z,13.13
2019-04-10T06:52:36.816Z,13.73
2019-04-10T06:55:40.551Z,19.40
2019-04-10T06:58:44.532Z,12.57
2019-04-10T07:01:52.833Z,11.80
2019-04-10T07:04:56.051Z,15.47
2019-04-10T07:08:09.985Z,11.67
2019-04-10T07:11:09.031Z,11.63
2019-04-10T07:14:13.519Z,12.17
2019-04-10T07:17:16.094Z,12.13
2019-04-10T07:20:20.954Z,10.90
2019-04-10T07:23:28.801Z,11.80
2019-04-10T07:26:37.785Z,10.33
2019-04-10T07:29:36.375Z,11.73
2019-04-10T07:32:43.331Z,10.47
2019-04-10T07:35:46.379Z,9.93
2019-04-10T07:38:53.905Z,10.37
2019-04-10T07:41:55.798Z,10.63
2019-04-10T07:44:59.360Z,8.50
2019-04-10T07:48:02.927Z,9.10
2019-04-10T07:51:06.989Z,10.07
2019-04-10T07:54:10.608Z,9.53
2019-04-10T07:57:14.168Z,8.73
2019-04-10T08:00:18.123Z,8.90
2019-04-10T08:03:22.852Z,9.70
2019-04-10T08:06:27.715Z,9.37
2019-04-10T08:09:31.403Z,8.20
2019-04-10T08:12:42.403Z,12.00
2019-04-10T08:15:41.225Z,10.53
2019-04-10T08:18:45.707Z,7.87
2019-04-10T08:21:49.445Z,7.53
2019-04-10T08:24:53.562Z,7.90
2019-04-10T08:27:58.449Z,7.40
2019-04-10T08:31:02.219Z,6.17
2019-04-10T08:34:06.670Z,6.97
2019-04-10T08:37:11.010Z,8.30
2019-04-10T08:40:15.745Z,8.83
2019-04-10T08:43:20.180Z,8.10
2019-04-10T08:46:24.052Z,7.67
2019-04-10T08:49:28.315Z,8.33
2019-04-10T08:52:32.567Z,6.53
2019-04-10T08:55:36.464Z,7.77
2019-04-10T08:58:41.062Z,6.13
2019-04-10T09:01:45.420Z,6.10
2019-04-10T09:04:49.640Z,7.33
2019-04-10T09:07:53.195Z,9.33
2019-04-10T09:10:57.079Z,6.43
2019-04-10T09:14:01.249Z,7.20
2019-04-10T09:17:05.180Z,7.00
2019-04-10T09:20:09.122Z,7.33
2019-04-10T09:23:22.576Z,6.20
2019-04-10T09:26:18.183Z,6.73
2019-04-10T09:29:24.170Z,5.83
2019-04-10T09:32:27.107Z,6.10
2019-04-10T09:35:30.923Z,5.33
2019-04-10T09:38:34.869Z,6.50
2019-04-10T09:41:38.544Z,4.63
2019-04-10T09:44:42.203Z,5.73
2019-04-10T09:47:46.136Z,5.40
2019-04-10T09:50:50.279Z,5.93
2019-04-10T09:53:54.164Z,5.67
2019-04-10T09:56:57.699Z,5.23
2019-04-10T10:00:01.268Z,4.23
2019-04-10T10:03:05.556Z,5.60
2019-04-10T10:06:09.221Z,5.53
2019-04-10T10:09:13.056Z,4.70
2019-04-10T10:12:16.628Z,4.20
2019-04-10T10:15:21.062Z,4.87
2019-04-10T10:18:25.616Z,5.03
2019-04-10T10:21:29.272Z,6.07
2019-04-10T10:24:33.059Z,3.57
2019-04-10T10:27:36.724Z,4.97
2019-04-10T10:30:40.288Z,3.93
2019-04-10T10:33:44.635Z,4.40
2019-04-10T10:36:50.639Z,4.30
2019-04-10T10:39:53.516Z,4.07
2019-04-10T10:42:58.084Z,4.30
2019-04-10T10:46:03.036Z,3.83
2019-04-10T10:49:06.863Z,4.43
2019-04-10T10:52:11.146Z,3.77
2019-04-10T10:55:15.662Z,4.17
2019-04-10T10:58:19.688Z,5.33
2019-04-10T11:01:24.150Z,3.90
2019-04-10T11:04:27.742Z,3.77
2019-04-10T11:07:31.371Z,3.80
2019-04-10T11:10:35.229Z,3.37
2019-04-10T11:13:39.258Z,3.40
2019-04-10T11:16:43.033Z,3.77
2019-04-10T11:19:47.325Z,3.80
2019-04-10T11:22:51.901Z,3.50
2019-04-10T11:25:57.593Z,2.83
2019-04-10T11:29:01.591Z,3.33
2019-04-10T11:32:06.648Z,2.77
2019-04-10T11:35:11.182Z,4.00
2019-04-10T11:38:16.188Z,3.57
2019-04-10T11:41:21.006Z,3.50
2019-04-10T11:44:24.959Z,3.60
2019-04-10T11:47:29.172Z,3.47
2019-04-10T11:50:34.810Z,3.17
2019-04-10T11:53:43.971Z,4.20
2019-04-10T11:56:47.902Z,3.80
2019-04-10T11:59:49.711Z,3.70
2019-04-10T12:02:57.183Z,3.30
2019-04-10T12:05:59.751Z,2.90
2019-04-10T12:09:32.795Z,3.37
2019-04-10T12:12:09.415Z,2.90
2019-04-10T12:15:12.989Z,3.33
2019-04-10T12:18:16.552Z,3.20
2019-04-10T12:21:20.448Z,3.33
2019-04-10T12:24:24.344Z,2.37
2019-04-10T12:27:27.928Z,3.40
2019-04-10T12:30:31.898Z,2.17
2019-04-10T12:33:35.968Z,4.00
2019-04-10T12:36:39.641Z,2.17
2019-04-10T12:39:43.563Z,2.93
2019-04-10T12:42:48.255Z,2.67
2019-04-10T12:45:52.652Z,2.57
2019-04-10T12:48:56.290Z,3.00
2019-04-10T12:52:00.326Z,2.57
2019-04-10T12:55:04.188Z,2.40
2019-04-10T12:58:15.294Z,2.50
2019-04-10T13:01:14.255Z,2.87
2019-04-10T13:04:18.051Z,2.40
2019-04-10T13:07:21.869Z,2.40
2019-04-10T13:10:25.440Z,2.40
2019-04-10T13:13:30.255Z,2.67
2019-04-10T13:16:34.261Z,2.73
2019-04-10T13:19:37.802Z,1.93
2019-04-10T13:22:42.293Z,2.17
2019-04-10T13:25:55.522Z,2.40
2019-04-10T13:28:51.918Z,2.67
2019-04-10T13:31:56.152Z,2.73
2019-04-10T13:35:00.081Z,3.03
2019-04-10T13:38:03.972Z,1.93
2019-04-10T13:41:08.177Z,3.10
2019-04-10T13:44:11.712Z,3.73
2019-04-10T13:47:15.486Z,2.53
2019-04-10T13:50:19.101Z,2.63
2019-04-10T13:53:23.788Z,2.57
2019-04-10T13:56:27.511Z,3.00
2019-04-10T13:59:31.255Z,2.77
2019-04-10T14:02:37.573Z,2.50
2019-04-10T14:05:41.320Z,2.17
2019-04-10T14:09:04.435Z,2.20
2019-04-10T14:11:51.389Z,2.47
2019-04-10T14:14:55.181Z,2.57
2019-04-10T14:17:59.789Z,2.40
2019-04-10T14:21:09.717Z,2.43
2019-04-10T14:24:09.868Z,2.70
2019-04-10T14:27:16.619Z,2.13
2019-04-10T14:30:29.343Z,2.33
2019-04-10T14:33:32.860Z,2.80
2019-04-10T14:36:36.421Z,2.23
2019-04-10T14:39:41.147Z,2.20
2019-04-10T14:42:45.858Z,2.30
2019-04-10T14:45:49.969Z,2.37
2019-04-10T14:48:54.444Z,2.77
2019-04-10T14:51:58.901Z,2.63
2019-04-10T14:55:02.490Z,2.53
2019-04-10T14:58:19.024Z,2.90
2019-04-10T15:01:13.622Z,2.10
2019-04-10T15:04:17.499Z,2.10
2019-04-10T15:07:21.866Z,3.40
2019-04-10T15:10:25.413Z,5.27
2019-04-10T15:13:29.679Z,4.77
2019-04-10T15:16:33.636Z,8.27
2019-04-10T15:19:37.505Z,4.97
2019-04-10T15:22:42.131Z,5.37
2019-04-10T15:25:47.130Z,7.43
2019-04-10T15:28:51.921Z,53.33
2019-04-10T15:31:55.950Z,9.77
2019-04-10T15:34:59.944Z,37.77
2019-04-10T15:38:04.254Z,14.37
2019-04-10T15:41:08.472Z,6.23
2019-04-10T15:44:12.490Z,5.63
2019-04-10T15:47:20.804Z,4.60
2019-04-10T15:50:22.097Z,4.93
2019-04-10T15:53:26.510Z,4.20
2019-04-10T15:56:30.173Z,20.87
2019-04-10T15:59:34.480Z,4.00
2019-04-10T16:02:38.425Z,5.53
2019-04-10T16:05:42.112Z,9.27
2019-04-10T16:08:45.672Z,4.97
2019-04-10T16:11:58.417Z,4.53
2019-04-10T16:15:02.882Z,3.97
2019-04-10T16:18:11.405Z,3.73
2019-04-10T16:21:15.889Z,90.23
2019-04-10T16:24:20.641Z,15.67
2019-04-10T16:27:24.402Z,13.20
2019-04-10T16:30:28.643Z,28.97
2019-04-10T16:33:32.204Z,8.63
2019-04-10T16:36:35.779Z,15.63
2019-04-10T16:39:40.353Z,4.57
2019-04-10T16:42:44.224Z,12.13
2019-04-10T16:45:48.985Z,15.50
2019-04-10T16:48:52.713Z,11.90
2019-04-10T16:51:56.737Z,10.50
2019-04-10T16:55:00.681Z,10.53
2019-04-10T16:58:04.296Z,10.47
2019-04-10T17:01:08.476Z,12.33
2019-04-10T17:04:12.413Z,10.10
2019-04-10T17:07:16.915Z,8.03
2019-04-10T17:10:24.840Z,9.07
2019-04-10T17:13:28.682Z,14.77
2019-04-10T17:16:33.545Z,11.03
2019-04-10T17:19:46.601Z,9.87
2019-04-10T17:22:45.793Z,8.83
2019-04-10T17:25:48.754Z,6.30
2019-04-10T17:28:52.610Z,5.07
2019-04-10T17:31:57.104Z,5.10
2019-04-10T17:35:03.154Z,6.57
2019-04-10T17:38:06.942Z,4.10
2019-04-10T17:41:11.217Z,6.97
2019-04-10T17:44:15.799Z,6.20
2019-04-10T17:47:20.885Z,6.43
2019-04-10T17:50:25.999Z,5.23
2019-04-10T17:53:31.417Z,3.50
2019-04-10T17:56:36.083Z,4.80
2019-04-10T17:59:40.707Z,5.80
2019-04-10T18:02:45.173Z,9.53
2019-04-10T18:05:50.823Z,14.17
2019-04-10T18:08:54.642Z,13.40
2019-04-10T18:12:00.834Z,5.03
2019-04-10T18:15:06.080Z,33.30
2019-04-10T18:18:09.841Z,68.20
2019-04-10T18:21:13.487Z,44.03
2019-04-10T18:24:17.070Z,81.27
2019-04-10T18:27:20.920Z,85.37
2019-04-10T18:30:24.503Z,60.20
2019-04-10T18:33:28.751Z,21.97
2019-04-10T18:36:32.431Z,12.93
2019-04-10T18:39:36.684Z,5.27
2019-04-10T18:42:40.576Z,6.03
2019-04-10T18:45:54.824Z,6.90
2019-04-10T18:48:51.284Z,9.90
2019-04-10T18:51:56.346Z,6.37
2019-04-10T18:55:00.493Z,27.40
2019-04-10T18:58:05.894Z,46.97
2019-04-10T19:01:28.770Z,47.20
2019-04-10T19:04:45.456Z,45.87
2019-04-10T19:07:50.247Z,10.57
2019-04-10T19:11:08.113Z,8.80
2019-04-10T19:13:59.915Z,6.53
2019-04-10T19:17:03.679Z,6.90
2019-04-10T19:20:08.931Z,6.33
2019-04-10T19:23:13.180Z,9.17
2019-04-10T19:26:21.056Z,12.07
2019-04-10T19:29:25.435Z,7.60
2019-04-10T19:32:33.292Z,9.13
2019-04-10T19:35:37.298Z,5.70
2019-04-10T19:38:41.204Z,8.07
2019-04-10T19:41:44.927Z,9.73
2019-04-10T19:44:48.514Z,6.83
2019-04-10T19:47:52.816Z,9.37
2019-04-10T19:50:57.457Z,10.57
2019-04-10T19:54:03.131Z,6.57
2019-04-10T19:57:06.938Z,7.50
2019-04-10T20:00:12.524Z,8.13
2019-04-10T20:03:16.484Z,7.63
2019-04-10T20:06:22.296Z,9.07
2019-04-10T20:09:26.041Z,7.50
2019-04-10T20:12:30.701Z,4.90
2019-04-10T20:15:34.578Z,10.73
2019-04-10T20:18:39.046Z,9.33
2019-04-10T20:21:44.012Z,11.20
2019-04-10T20:24:47.586Z,41.30
2019-04-10T20:27:52.133Z,26.93
2019-04-10T20:30:56.769Z,16.70
2019-04-10T20:34:01.556Z,369.97
2019-04-10T20:37:08.443Z,240.37
2019-04-10T20:40:11.884Z,141.80
2019-04-10T20:43:15.587Z,139.67
2019-04-10T20:46:20.209Z,127.67
2019-04-10T20:49:23.829Z,119.77
2019-04-10T20:52:28.375Z,112.87
2019-04-10T20:55:33.273Z,110.53
2019-04-10T20:58:38.203Z,107.13
2019-04-10T21:01:41.798Z,98.10
2019-04-10T21:04:54.436Z,97.47
2019-04-10T21:07:50.776Z,92.93
2019-04-10T21:10:54.791Z,88.07
2019-04-10T21:13:58.803Z,87.33
2019-04-10T21:17:02.486Z,85.50
2019-04-10T21:20:07.723Z,86.97
2019-04-10T21:23:13.132Z,77.47
2019-04-10T21:26:16.729Z,74.60
2019-04-10T21:29:38.540Z,72.93
2019-04-10T21:33:07.983Z,65.87
2019-04-10T21:36:11.674Z,66.77
2019-04-10T21:39:15.270Z,66.93
2019-04-10T21:42:22.747Z,62.80
2019-04-10T21:45:24.666Z,60.43
2019-04-10T21:48:28.256Z,53.37
2019-04-10T21:51:33.461Z,55.07
2019-04-10T21:54:47.119Z,56.20
2019-04-10T21:57:43.160Z,58.97
2019-04-10T22:01:15.662Z,51.33
2019-04-10T22:04:19.444Z,16.83
2019-04-10T22:07:42.004Z,66.80
2019-04-10T22:10:48.231Z,78.03
2019-04-10T22:13:52.676Z,135.33
2019-04-10T22:16:58.129Z,122.87
2019-04-10T22:20:03.259Z,131.90
2019-04-10T22:23:07.613Z,117.40
2019-04-10T22:26:11.678Z,117.30
2019-04-10T22:29:15.643Z,107.70
2019-04-10T22:32:19.970Z,97.70
2019-04-10T22:35:23.815Z,89.93
2019-04-10T22:38:27.490Z,83.93
2019-04-10T22:41:32.706Z,88.13
2019-04-10T22:44:41.930Z,85.93
2019-04-10T22:47:41.698Z,79.70
2019-04-10T22:50:45.304Z,75.23
2019-04-10T22:53:49.961Z,74.90
2019-04-10T22:56:54.449Z,69.60
2019-04-10T22:59:59.555Z,64.20
2019-04-10T23:03:03.491Z,69.93
2019-04-10T23:06:07.074Z,61.23
2019-04-10T23:09:12.304Z,66.90
2019-04-10T23:12:16.275Z,63.83
2019-04-10T23:15:20.153Z,56.33
2019-04-10T23:18:24.047Z,55.27
2019-04-10T23:21:28.283Z,57.70
2019-04-10T23:24:31.992Z,56.43
2019-04-10T23:27:35.680Z,52.43
2019-04-10T23:30:39.302Z,49.20
2019-04-10T23:33:43.966Z,46.37
2019-04-10T23:36:48.652Z,47.50
2019-04-10T23:39:52.585Z,44.57
2019-04-10T23:43:08.082Z,45.80
2019-04-10T23:46:02.157Z,40.67
2019-04-10T23:49:05.783Z,44.90
2019-04-10T23:52:09.699Z,38.60
2019-04-10T23:55:13.665Z,41.57
2019-04-10T23:58:18.037Z,37.83
